Other Surface Observations
Issued by NWS Great Falls, MT

Home | Current Version | Previous Version | Text Only | Print | Product List | Glossary On
Versions: 1 2 3 4 5 6 7 8 9 10 11 12 13 14 15 16 17 18 19 20 21 22 23 24 25 26 27 28 29 30 31 32 33 34 35 36 37 38 39 40 41 42 43 44 45 46 47 48 49 50
439
SXUS55 KTFX 241214
OSOTFX
AREA AWOS OBSERVATIONS
NATIONAL WEATHER SERVICE GREAT FALLS MT
0614 AM MDT TUE MAY 24 2016

METAR KPWD 241215Z AUTO 22005KT 10SM 08/06 A2982 RMK PLENTYWOOD
METAR KPO1 241215Z AUTO 23005KT 10SM 09/06 A2985 RMK POPLAR
METAR K1S3 241215Z AUTO 00000KT 10SM 09/06 A2990 RMK FORSYTH
METAR KS71 241215Z AUTO 25007KT 10SM 09/06 A2985 RMK CHINOOK
METAR K38S 241215Z AUTO 00000KT 9SM 04/04 A2992 RMK DEER LODGE
METAR K3U3 241215Z AUTO 17004KT 03/02 A2992 RMK ANACONDA
METAR K6S5 241215Z AUTO 28003KT 10SM 06/06 A2991 RMK HAMILTON
METAR KS59 241215Z AUTO 00000KT 10SM 08/07 A2992 RMK LIBBY
METAR K88M 241215Z AUTO 00000KT 10SM 06/05 A2993 RMK EUREKA



USA.gov is the U.S. government's official web portal to all federal, state and local government web resources and services.